createdAt,value
2023-01-09T01:06:22.810Z,73.52
2023-01-09T01:45:38.663Z,73.62
2023-01-09T02:28:36.673Z,74.49
2023-01-09T02:32:24.169Z,74.71
2023-01-09T02:39:24.378Z,74.79
2023-01-09T02:46:13.382Z,74.88
2023-01-09T02:49:19.758Z,74.93
2023-01-09T02:56:05.717Z,75.09
2023-01-09T03:03:19.072Z,75.37
2023-01-09T03:37:40.757Z,75.40
2023-01-09T03:53:59.794Z,76.10
2023-01-09T03:56:29.263Z,76.31
2023-01-09T03:58:58.275Z,76.38
2023-01-09T04:01:29.164Z,76.59
2023-01-09T04:03:58.383Z,76.72
2023-01-09T04:06:28.101Z,76.76
2023-01-09T04:08:57.398Z,76.62
2023-01-09T04:11:27.050Z,76.74
2023-01-09T04:13:56.309Z,76.50
2023-01-09T04:16:25.539Z,76.59
2023-01-09T04:18:59.618Z,76.70
2023-01-09T04:31:59.439Z,76.44
2023-01-09T04:41:47.042Z,76.68
2023-01-09T04:44:17.040Z,76.72
2023-01-09T04:46:46.330Z,76.68
2023-01-09T04:49:16.036Z,76.71
2023-01-09T04:51:46.315Z,76.37
2023-01-09T04:54:16.591Z,76.44
2023-01-09T04:56:45.408Z,76.37
2023-01-09T04:59:15.225Z,76.42
2023-01-09T05:01:45.187Z,76.20
2023-01-09T05:04:14.588Z,76.69
2023-01-09T05:06:43.767Z,76.78
2023-01-09T05:09:14.213Z,76.61
2023-01-09T05:11:44.483Z,76.79
2023-01-09T05:14:22.891Z,76.85
2023-01-09T05:25:09.160Z,76.37
2023-01-09T05:28:40.939Z,76.18
2023-01-09T05:55:21.314Z,76.15
2023-01-09T06:02:03.887Z,75.92
2023-01-09T06:05:45.379Z,75.85
2023-01-09T06:09:31.069Z,76.10
2023-01-09T06:13:30.818Z,76.14
2023-01-09T06:16:58.712Z,76.33
2023-01-09T06:19:36.095Z,76.32
2023-01-09T06:22:22.440Z,76.60
2023-01-09T06:25:43.987Z,76.50
2023-01-09T06:28:19.126Z,76.63
2023-01-09T06:31:18.434Z,76.93
2023-01-09T06:35:10.355Z,77.31
2023-01-09T06:37:40.468Z,77.32
2023-01-09T06:40:10.638Z,77.66
2023-01-09T06:42:39.567Z,77.82
2023-01-09T06:45:10.132Z,78.12
2023-01-09T06:47:39.307Z,78.28
2023-01-09T06:50:10.936Z,78.41
2023-01-09T06:52:40.094Z,78.84
2023-01-09T06:55:09.639Z,78.86
2023-01-09T06:57:38.079Z,79.12
2023-01-09T07:00:07.683Z,79.14
2023-01-09T07:02:36.199Z,79.31
2023-01-09T07:05:08.773Z,79.33
2023-01-09T07:07:39.631Z,79.45
2023-01-09T07:10:09.787Z,79.40
2023-01-09T07:12:38.355Z,79.46
2023-01-09T07:15:07.805Z,79.56
2023-01-09T07:17:36.403Z,79.60
2023-01-09T07:20:06.073Z,79.61
2023-01-09T07:22:34.890Z,79.66
2023-01-09T07:25:05.172Z,79.50
2023-01-09T07:27:33.596Z,79.56
2023-01-09T07:30:02.341Z,79.49
2023-01-09T07:32:31.085Z,79.52
2023-01-09T07:41:49.016Z,79.51
2023-01-09T07:44:17.977Z,79.83
2023-01-09T07:46:47.055Z,79.58
2023-01-09T07:49:15.695Z,79.54
2023-01-09T07:51:46.227Z,79.71
2023-01-09T07:54:15.069Z,79.40
2023-01-09T07:56:43.735Z,79.38
2023-01-09T07:59:13.781Z,79.34
2023-01-09T08:01:44.207Z,79.23
2023-01-09T08:11:19.625Z,78.64
2023-01-09T08:13:48.196Z,78.38
2023-01-09T08:16:18.008Z,78.13
2023-01-09T08:18:46.940Z,77.92
2023-01-09T08:21:15.389Z,77.73
2023-01-09T08:23:45.869Z,77.58
2023-01-09T08:26:14.420Z,77.58
2023-01-09T08:28:43.589Z,77.26
2023-01-09T08:31:12.224Z,77.13
2023-01-09T08:33:42.659Z,77.00
2023-01-09T08:36:11.197Z,76.78
2023-01-09T08:38:40.008Z,76.75
2023-01-09T08:41:22.373Z,76.69
2023-01-09T08:44:08.867Z,76.54
2023-01-09T08:46:54.538Z,76.41
2023-01-09T08:49:24.795Z,76.38
2023-01-09T08:51:53.673Z,76.13
2023-01-09T08:54:22.052Z,75.86
2023-01-09T08:56:51.087Z,75.69
2023-01-09T08:59:19.815Z,75.41
2023-01-09T09:01:48.369Z,75.08
2023-01-09T09:04:17.042Z,74.96
2023-01-09T09:51:37.284Z,69.10
2023-01-09T09:54:15.103Z,68.89
2023-01-09T10:41:41.532Z,68.08
2023-01-09T10:44:18.326Z,67.76
2023-01-09T10:46:50.849Z,67.85
2023-01-09T10:49:20.030Z,67.74
2023-01-09T10:51:51.495Z,67.36
2023-01-09T10:54:23.780Z,67.31
2023-01-09T10:56:57.513Z,67.13
2023-01-09T10:59:27.190Z,67.38
2023-01-09T11:01:56.489Z,67.30
2023-01-09T11:04:28.551Z,67.14
2023-01-09T11:07:02.046Z,66.79
2023-01-09T11:09:57.846Z,66.47
2023-01-09T11:12:31.559Z,66.17
2023-01-09T11:15:31.537Z,65.94
2023-01-09T11:18:24.346Z,66.10
2023-01-09T11:20:54.646Z,65.82
2023-01-09T11:23:34.483Z,65.55
2023-01-09T11:26:03.992Z,65.32
2023-01-09T11:28:34.087Z,65.24
2023-01-09T11:31:03.848Z,65.00
2023-01-09T11:33:37.187Z,65.10
2023-01-09T11:36:11.031Z,64.93
2023-01-09T11:38:52.454Z,64.56
2023-01-09T11:41:24.144Z,64.52
2023-01-09T11:43:58.986Z,64.60
2023-01-09T11:46:37.208Z,64.52
2023-01-09T11:49:21.331Z,64.52
2023-01-09T11:52:14.751Z,64.17
2023-01-09T11:54:48.725Z,64.17
2023-01-09T11:57:18.030Z,63.92
2023-01-09T12:01:12.285Z,63.77
2023-01-09T12:11:55.278Z,63.31
2023-01-09T12:26:26.780Z,62.71
2023-01-09T12:29:52.778Z,62.68
2023-01-09T12:33:12.040Z,62.39
2023-01-09T12:40:14.814Z,62.21
2023-01-09T12:46:22.305Z,62.00
2023-01-09T12:49:10.271Z,61.82
2023-01-09T12:51:43.822Z,61.64
2023-01-09T12:54:18.207Z,61.84
2023-01-09T15:02:31.158Z,59.03
2023-01-09T17:27:24.929Z,62.17
2023-01-09T17:30:47.812Z,62.42
2023-01-09T18:44:12.506Z,66.93
2023-01-09T18:46:42.172Z,66.90
2023-01-09T18:49:11.398Z,67.41
2023-01-09T18:51:40.704Z,67.36
2023-01-09T18:54:09.835Z,67.56
2023-01-09T18:56:41.557Z,67.76
2023-01-09T19:31:39.748Z,68.61
2023-01-09T19:34:09.125Z,68.81
2023-01-09T19:36:38.887Z,68.82
2023-01-09T19:39:09.110Z,69.07
2023-01-09T19:41:38.169Z,68.89
2023-01-09T19:44:07.626Z,69.01
2023-01-09T19:46:36.639Z,69.45
2023-01-09T19:49:08.181Z,69.60
2023-01-09T19:51:37.936Z,69.60
2023-01-09T20:04:05.136Z,70.21
2023-01-09T20:06:36.715Z,70.41
2023-01-09T20:20:25.140Z,70.89
2023-01-09T20:29:55.374Z,70.66
2023-01-09T20:32:23.835Z,70.73
2023-01-09T20:34:52.425Z,70.88
2023-01-09T20:37:21.013Z,70.53
2023-01-09T20:39:53.022Z,70.69
2023-01-09T20:42:22.063Z,70.60
2023-01-09T20:44:53.602Z,70.64
2023-01-09T20:47:22.834Z,70.52
2023-01-09T20:49:51.673Z,70.76
2023-01-09T20:52:23.096Z,70.54
2023-01-09T20:54:52.941Z,70.48
2023-01-09T20:57:21.901Z,70.37
2023-01-09T20:59:50.304Z,70.43
2023-01-09T21:02:22.332Z,70.17
2023-01-09T21:07:34.002Z,69.78
2023-01-09T21:10:03.938Z,70.00
2023-01-09T21:12:35.770Z,69.78
2023-01-09T21:15:07.382Z,69.86
2023-01-09T21:17:37.776Z,69.78
2023-01-09T21:20:08.772Z,69.71
2023-01-09T21:22:38.611Z,69.54
2023-01-09T21:25:09.485Z,69.58
2023-01-09T21:27:43.158Z,69.39
2023-01-09T21:30:12.330Z,69.35
2023-01-09T21:32:41.199Z,69.52
2023-01-09T21:35:10.771Z,69.37
2023-01-09T21:37:39.812Z,69.30
2023-01-09T21:40:13.815Z,69.40
2023-01-09T21:43:00.220Z,69.30
2023-01-09T21:45:45.275Z,69.15
2023-01-09T21:48:13.804Z,69.27
2023-01-09T22:14:10.561Z,69.41
2023-01-09T22:16:50.824Z,69.38
2023-01-09T22:26:56.690Z,70.07
2023-01-09T22:36:42.194Z,70.50
2023-01-09T22:39:59.124Z,70.57
2023-01-09T22:43:07.601Z,70.68
2023-01-09T22:56:27.388Z,71.17
2023-01-09T22:58:59.922Z,71.25
2023-01-09T23:01:28.480Z,71.32
2023-01-09T23:03:57.876Z,71.21
2023-01-09T23:06:26.487Z,71.51
2023-01-09T23:08:55.336Z,71.47
2023-01-09T23:11:44.174Z,71.61
2023-01-09T23:14:14.631Z,71.69
2023-01-09T23:16:43.916Z,71.69
2023-01-09T23:19:15.656Z,71.84
2023-01-09T23:21:46.070Z,71.93
2023-01-09T23:24:15.665Z,71.85
2023-01-09T23:26:45.929Z,71.91
2023-01-09T23:29:16.034Z,71.97
2023-01-09T23:31:44.413Z,72.04
2023-01-09T23:34:16.048Z,72.02
2023-01-09T23:36:44.721Z,72.05
2023-01-09T23:39:13.776Z,72.08
2023-01-09T23:42:00.421Z,72.17
2023-01-09T23:44:30.163Z,72.08
